sensor_id;sensor_type;location;lat;lon;timestamp;P1;durP1;ratioP1;P2;durP2;ratioP2
53971;SDS011;40530;53.062;6.078;2023-10-13T00:01:58;93.80;;;38.30;;
53971;SDS011;40530;53.062;6.078;2023-10-13T00:04:25;79.80;;;36.38;;
53971;SDS011;40530;53.062;6.078;2023-10-13T00:06:51;84.32;;;36.45;;
53971;SDS011;40530;53.062;6.078;2023-10-13T00:09:18;83.05;;;36.85;;
53971;SDS011;40530;53.062;6.078;2023-10-13T00:11:49;73.15;;;34.60;;
53971;SDS011;40530;53.062;6.078;2023-10-13T00:14:17;84.80;;;35.67;;
53971;SDS011;40530;53.062;6.078;2023-10-13T00:16:43;95.22;;;36.33;;
53971;SDS011;40530;53.062;6.078;2023-10-13T00:19:32;78.82;;;34.03;;
53971;SDS011;40530;53.062;6.078;2023-10-13T00:22:12;76.93;;;33.45;;
53971;SDS011;40530;53.062;6.078;2023-10-13T00:24:41;77.60;;;34.38;;
53971;SDS011;40530;53.062;6.078;2023-10-13T00:27:17;290.38;;;182.93;;
53971;SDS011;40530;53.062;6.078;2023-10-13T00:29:54;80.97;;;39.85;;
53971;SDS011;40530;53.062;6.078;2023-10-13T00:32:41;71.05;;;31.20;;
53971;SDS011;40530;53.062;6.078;2023-10-13T00:35:09;78.28;;;32.38;;
53971;SDS011;40530;53.062;6.078;2023-10-13T00:37:56;78.68;;;32.10;;
53971;SDS011;40530;53.062;6.078;2023-10-13T00:40:24;81.15;;;32.72;;
53971;SDS011;40530;53.062;6.078;2023-10-13T00:42:56;80.35;;;32.50;;
53971;SDS011;40530;53.062;6.078;2023-10-13T00:45:41;68.57;;;30.23;;
53971;SDS011;40530;53.062;6.078;2023-10-13T00:48:09;126.93;;;64.82;;
53971;SDS011;40530;53.062;6.078;2023-10-13T00:50:37;110.20;;;54.55;;
53971;SDS011;40530;53.062;6.078;2023-10-13T00:53:03;68.95;;;29.23;;
53971;SDS011;40530;53.062;6.078;2023-10-13T00:55:29;55.30;;;25.88;;
53971;SDS011;40530;53.062;6.078;2023-10-13T00:57:58;55.90;;;26.80;;
53971;SDS011;40530;53.062;6.078;2023-10-13T01:00:29;60.03;;;25.83;;
53971;SDS011;40530;53.062;6.078;2023-10-13T01:02:55;49.88;;;23.02;;
53971;SDS011;40530;53.062;6.078;2023-10-13T01:05:25;51.58;;;22.67;;
53971;SDS011;40530;53.062;6.078;2023-10-13T01:07:51;48.13;;;22.98;;
53971;SDS011;40530;53.062;6.078;2023-10-13T01:10:21;51.17;;;21.10;;
53971;SDS011;40530;53.062;6.078;2023-10-13T01:12:57;40.22;;;20.40;;
53971;SDS011;40530;53.062;6.078;2023-10-13T01:15:27;55.33;;;21.83;;
53971;SDS011;40530;53.062;6.078;2023-10-13T01:18:08;49.95;;;19.42;;
53971;SDS011;40530;53.062;6.078;2023-10-13T01:20:42;45.50;;;18.73;;
53971;SDS011;40530;53.062;6.078;2023-10-13T01:23:11;51.15;;;21.63;;
53971;SDS011;40530;53.062;6.078;2023-10-13T01:26:00;49.03;;;27.55;;
53971;SDS011;40530;53.062;6.078;2023-10-13T01:28:30;63.00;;;34.15;;
53971;SDS011;40530;53.062;6.078;2023-10-13T01:31:09;44.10;;;17.95;;
53971;SDS011;40530;53.062;6.078;2023-10-13T01:33:36;37.58;;;17.67;;
53971;SDS011;40530;53.062;6.078;2023-10-13T01:36:02;33.22;;;18.15;;
53971;SDS011;40530;53.062;6.078;2023-10-13T01:38:32;36.30;;;16.08;;
53971;SDS011;40530;53.062;6.078;2023-10-13T01:40:58;32.55;;;15.73;;
53971;SDS011;40530;53.062;6.078;2023-10-13T01:43:25;30.50;;;13.95;;
53971;SDS011;40530;53.062;6.078;2023-10-13T01:45:51;29.85;;;14.70;;
53971;SDS011;40530;53.062;6.078;2023-10-13T01:48:18;27.90;;;14.35;;
53971;SDS011;40530;53.062;6.078;2023-10-13T01:50:46;29.52;;;12.95;;
53971;SDS011;40530;53.062;6.078;2023-10-13T01:53:14;24.13;;;13.50;;
53971;SDS011;40530;53.062;6.078;2023-10-13T01:55:43;24.10;;;14.15;;
53971;SDS011;40530;53.062;6.078;2023-10-13T01:58:12;29.20;;;14.70;;
53971;SDS011;40530;53.062;6.078;2023-10-13T02:00:42;36.00;;;16.10;;
53971;SDS011;40530;53.062;6.078;2023-10-13T02:03:09;34.00;;;15.88;;
53971;SDS011;40530;53.062;6.078;2023-10-13T02:05:40;35.63;;;16.10;;
53971;SDS011;40530;53.062;6.078;2023-10-13T02:08:12;37.83;;;15.73;;
53971;SDS011;40530;53.062;6.078;2023-10-13T02:10:43;30.52;;;16.75;;
53971;SDS011;40530;53.062;6.078;2023-10-13T02:13:13;38.13;;;17.23;;
53971;SDS011;40530;53.062;6.078;2023-10-13T02:15:47;34.97;;;18.33;;
53971;SDS011;40530;53.062;6.078;2023-10-13T02:18:15;38.10;;;19.55;;
53971;SDS011;40530;53.062;6.078;2023-10-13T02:20:55;41.78;;;19.52;;
53971;SDS011;40530;53.062;6.078;2023-10-13T02:23:22;46.13;;;19.02;;
53971;SDS011;40530;53.062;6.078;2023-10-13T02:25:49;41.45;;;19.75;;
53971;SDS011;40530;53.062;6.078;2023-10-13T02:28:25;37.72;;;18.13;;
53971;SDS011;40530;53.062;6.078;2023-10-13T02:30:54;37.63;;;19.30;;
53971;SDS011;40530;53.062;6.078;2023-10-13T02:33:22;47.88;;;20.92;;
53971;SDS011;40530;53.062;6.078;2023-10-13T02:38:21;52.92;;;25.20;;
53971;SDS011;40530;53.062;6.078;2023-10-13T02:40:58;56.95;;;26.80;;
53971;SDS011;40530;53.062;6.078;2023-10-13T02:43:31;57.20;;;23.90;;
53971;SDS011;40530;53.062;6.078;2023-10-13T02:45:58;58.08;;;25.02;;
53971;SDS011;40530;53.062;6.078;2023-10-13T02:48:25;59.83;;;26.40;;
53971;SDS011;40530;53.062;6.078;2023-10-13T02:50:59;56.15;;;24.55;;
53971;SDS011;40530;53.062;6.078;2023-10-13T02:53:32;58.28;;;28.65;;
53971;SDS011;40530;53.062;6.078;2023-10-13T02:55:58;66.90;;;26.75;;
53971;SDS011;40530;53.062;6.078;2023-10-13T02:58:30;50.28;;;25.95;;
53971;SDS011;40530;53.062;6.078;2023-10-13T03:01:09;59.63;;;26.52;;
53971;SDS011;40530;53.062;6.078;2023-10-13T03:03:48;60.75;;;25.63;;
53971;SDS011;40530;53.062;6.078;2023-10-13T03:06:23;45.22;;;22.20;;
53971;SDS011;40530;53.062;6.078;2023-10-13T03:08:57;51.17;;;21.75;;
53971;SDS011;40530;53.062;6.078;2023-10-13T03:11:26;48.17;;;22.08;;
53971;SDS011;40530;53.062;6.078;2023-10-13T03:13:57;34.73;;;19.10;;
53971;SDS011;40530;53.062;6.078;2023-10-13T03:16:23;39.70;;;19.08;;
53971;SDS011;40530;53.062;6.078;2023-10-13T03:18:49;33.90;;;17.30;;
53971;SDS011;40530;53.062;6.078;2023-10-13T03:23:57;33.90;;;16.92;;
53971;SDS011;40530;53.062;6.078;2023-10-13T03:26:30;31.95;;;17.05;;
53971;SDS011;40530;53.062;6.078;2023-10-13T03:29:09;38.17;;;16.42;;
53971;SDS011;40530;53.062;6.078;2023-10-13T03:31:39;30.77;;;16.05;;
53971;SDS011;40530;53.062;6.078;2023-10-13T03:34:05;34.00;;;14.75;;
53971;SDS011;40530;53.062;6.078;2023-10-13T03:36:35;25.40;;;14.70;;
53971;SDS011;40530;53.062;6.078;2023-10-13T03:39:20;29.00;;;15.88;;
53971;SDS011;40530;53.062;6.078;2023-10-13T03:44:18;28.25;;;16.55;;
53971;SDS011;40530;53.062;6.078;2023-10-13T03:46:45;31.80;;;17.58;;
53971;SDS011;40530;53.062;6.078;2023-10-13T03:49:15;39.78;;;19.40;;
53971;SDS011;40530;53.062;6.078;2023-10-13T03:51:46;39.77;;;20.90;;
53971;SDS011;40530;53.062;6.078;2023-10-13T03:54:13;33.63;;;19.90;;
53971;SDS011;40530;53.062;6.078;2023-10-13T03:56:41;38.00;;;19.15;;
53971;SDS011;40530;53.062;6.078;2023-10-13T03:59:09;32.65;;;18.98;;
53971;SDS011;40530;53.062;6.078;2023-10-13T04:01:55;38.33;;;19.70;;
53971;SDS011;40530;53.062;6.078;2023-10-13T04:04:24;41.72;;;20.23;;
53971;SDS011;40530;53.062;6.078;2023-10-13T04:07:12;37.10;;;20.17;;
53971;SDS011;40530;53.062;6.078;2023-10-13T04:09:51;38.53;;;20.60;;
53971;SDS011;40530;53.062;6.078;2023-10-13T04:12:37;47.88;;;23.05;;
53971;SDS011;40530;53.062;6.078;2023-10-13T04:15:22;38.45;;;20.48;;
53971;SDS011;40530;53.062;6.078;2023-10-13T04:17:48;42.10;;;21.60;;
53971;SDS011;40530;53.062;6.078;2023-10-13T04:20:16;43.30;;;21.58;;
53971;SDS011;40530;53.062;6.078;2023-10-13T04:22:58;42.58;;;21.85;;
53971;SDS011;40530;53.062;6.078;2023-10-13T04:25:25;45.70;;;22.85;;
53971;SDS011;40530;53.062;6.078;2023-10-13T04:28:08;48.65;;;23.42;;
53971;SDS011;40530;53.062;6.078;2023-10-13T04:30:37;44.05;;;22.48;;
53971;SDS011;40530;53.062;6.078;2023-10-13T04:33:18;51.55;;;22.58;;
53971;SDS011;40530;53.062;6.078;2023-10-13T04:36:03;38.03;;;21.07;;
53971;SDS011;40530;53.062;6.078;2023-10-13T04:38:45;50.58;;;23.38;;
53971;SDS011;40530;53.062;6.078;2023-10-13T04:43:48;42.65;;;20.50;;
53971;SDS011;40530;53.062;6.078;2023-10-13T04:46:41;42.53;;;20.80;;
53971;SDS011;40530;53.062;6.078;2023-10-13T04:49:13;46.65;;;21.77;;
53971;SDS011;40530;53.062;6.078;2023-10-13T04:51:55;45.70;;;20.92;;
53971;SDS011;40530;53.062;6.078;2023-10-13T04:54:26;42.85;;;19.67;;
53971;SDS011;40530;53.062;6.078;2023-10-13T04:57:02;35.45;;;18.95;;
53971;SDS011;40530;53.062;6.078;2023-10-13T04:59:47;38.00;;;18.20;;
53971;SDS011;40530;53.062;6.078;2023-10-13T05:02:28;36.00;;;17.48;;
53971;SDS011;40530;53.062;6.078;2023-10-13T05:07:39;24.45;;;13.82;;
53971;SDS011;40530;53.062;6.078;2023-10-13T05:10:23;25.95;;;14.43;;
53971;SDS011;40530;53.062;6.078;2023-10-13T05:13:08;23.88;;;13.77;;
53971;SDS011;40530;53.062;6.078;2023-10-13T05:15:53;22.75;;;13.13;;
53971;SDS011;40530;53.062;6.078;2023-10-13T05:18:38;28.15;;;14.00;;
53971;SDS011;40530;53.062;6.078;2023-10-13T05:21:22;27.23;;;13.70;;
53971;SDS011;40530;53.062;6.078;2023-10-13T05:24:07;26.08;;;12.63;;
53971;SDS011;40530;53.062;6.078;2023-10-13T05:26:52;19.48;;;11.60;;
53971;SDS011;40530;53.062;6.078;2023-10-13T05:29:41;19.85;;;11.85;;
53971;SDS011;40530;53.062;6.078;2023-10-13T05:32:26;15.40;;;10.55;;
53971;SDS011;40530;53.062;6.078;2023-10-13T05:35:12;16.90;;;10.60;;
53971;SDS011;40530;53.062;6.078;2023-10-13T05:37:58;15.43;;;10.23;;
53971;SDS011;40530;53.062;6.078;2023-10-13T05:40:59;12.95;;;8.52;;
53971;SDS011;40530;53.062;6.078;2023-10-13T05:43:44;12.18;;;8.30;;
53971;SDS011;40530;53.062;6.078;2023-10-13T05:46:29;13.32;;;8.90;;
53971;SDS011;40530;53.062;6.078;2023-10-13T05:49:05;12.68;;;9.07;;
53971;SDS011;40530;53.062;6.078;2023-10-13T05:51:54;16.38;;;8.63;;
53971;SDS011;40530;53.062;6.078;2023-10-13T05:54:31;15.35;;;9.45;;
53971;SDS011;40530;53.062;6.078;2023-10-13T05:57:16;10.80;;;7.85;;
53971;SDS011;40530;53.062;6.078;2023-10-13T06:00:01;11.25;;;7.45;;
53971;SDS011;40530;53.062;6.078;2023-10-13T06:03:05;10.82;;;7.95;;
53971;SDS011;40530;53.062;6.078;2023-10-13T06:05:50;13.95;;;8.30;;
53971;SDS011;40530;53.062;6.078;2023-10-13T06:08:34;12.65;;;8.40;;
53971;SDS011;40530;53.062;6.078;2023-10-13T06:11:19;12.52;;;9.07;;
53971;SDS011;40530;53.062;6.078;2023-10-13T06:14:04;9.98;;;7.13;;
53971;SDS011;40530;53.062;6.078;2023-10-13T06:16:48;8.50;;;7.30;;
53971;SDS011;40530;53.062;6.078;2023-10-13T06:19:33;12.40;;;7.03;;
53971;SDS011;40530;53.062;6.078;2023-10-13T06:22:18;13.55;;;8.75;;
53971;SDS011;40530;53.062;6.078;2023-10-13T06:25:02;11.20;;;7.65;;
53971;SDS011;40530;53.062;6.078;2023-10-13T06:27:47;9.18;;;6.05;;
53971;SDS011;40530;53.062;6.078;2023-10-13T06:30:31;10.25;;;6.20;;
53971;SDS011;40530;53.062;6.078;2023-10-13T06:32:58;10.98;;;6.97;;
53971;SDS011;40530;53.062;6.078;2023-10-13T06:35:26;8.80;;;6.47;;
53971;SDS011;40530;53.062;6.078;2023-10-13T06:37:52;10.80;;;8.15;;
53971;SDS011;40530;53.062;6.078;2023-10-13T06:40:18;10.73;;;7.30;;
53971;SDS011;40530;53.062;6.078;2023-10-13T06:42:51;13.25;;;7.00;;
53971;SDS011;40530;53.062;6.078;2023-10-13T06:45:18;9.27;;;5.93;;
53971;SDS011;40530;53.062;6.078;2023-10-13T06:47:45;10.75;;;5.95;;
53971;SDS011;40530;53.062;6.078;2023-10-13T06:50:13;11.52;;;5.30;;
53971;SDS011;40530;53.062;6.078;2023-10-13T06:52:47;13.23;;;5.97;;
53971;SDS011;40530;53.062;6.078;2023-10-13T06:55:20;11.32;;;4.63;;
53971;SDS011;40530;53.062;6.078;2023-10-13T06:57:52;11.82;;;5.75;;
53971;SDS011;40530;53.062;6.078;2023-10-13T07:00:18;12.10;;;4.75;;
53971;SDS011;40530;53.062;6.078;2023-10-13T07:02:48;11.77;;;4.82;;
53971;SDS011;40530;53.062;6.078;2023-10-13T07:05:17;14.88;;;4.75;;
53971;SDS011;40530;53.062;6.078;2023-10-13T07:07:44;9.73;;;4.57;;
53971;SDS011;40530;53.062;6.078;2023-10-13T07:10:11;9.05;;;4.13;;
53971;SDS011;40530;53.062;6.078;2023-10-13T07:12:38;12.45;;;4.70;;
53971;SDS011;40530;53.062;6.078;2023-10-13T07:15:08;15.27;;;4.70;;
53971;SDS011;40530;53.062;6.078;2023-10-13T07:17:44;11.40;;;4.07;;
53971;SDS011;40530;53.062;6.078;2023-10-13T07:20:10;13.23;;;4.40;;
53971;SDS011;40530;53.062;6.078;2023-10-13T07:22:41;11.35;;;4.47;;
53971;SDS011;40530;53.062;6.078;2023-10-13T07:25:22;15.80;;;5.60;;
53971;SDS011;40530;53.062;6.078;2023-10-13T07:27:50;12.65;;;4.82;;
53971;SDS011;40530;53.062;6.078;2023-10-13T07:30:18;15.13;;;4.53;;
53971;SDS011;40530;53.062;6.078;2023-10-13T07:32:45;14.85;;;4.90;;
53971;SDS011;40530;53.062;6.078;2023-10-13T07:35:12;16.98;;;5.07;;
53971;SDS011;40530;53.062;6.078;2023-10-13T07:37:41;13.07;;;5.65;;
53971;SDS011;40530;53.062;6.078;2023-10-13T07:40:08;15.90;;;4.78;;
53971;SDS011;40530;53.062;6.078;2023-10-13T07:42:57;17.08;;;5.10;;
53971;SDS011;40530;53.062;6.078;2023-10-13T07:45:28;12.00;;;4.32;;
53971;SDS011;40530;53.062;6.078;2023-10-13T07:48:06;18.08;;;6.38;;
53971;SDS011;40530;53.062;6.078;2023-10-13T07:50:44;20.50;;;4.90;;
53971;SDS011;40530;53.062;6.078;2023-10-13T07:53:10;22.38;;;5.75;;
53971;SDS011;40530;53.062;6.078;2023-10-13T07:55:49;24.08;;;5.80;;
53971;SDS011;40530;53.062;6.078;2023-10-13T07:58:22;26.08;;;6.80;;
53971;SDS011;40530;53.062;6.078;2023-10-13T08:00:51;20.63;;;5.90;;
53971;SDS011;40530;53.062;6.078;2023-10-13T08:03:32;15.80;;;6.10;;
53971;SDS011;40530;53.062;6.078;2023-10-13T08:06:15;16.42;;;5.50;;
53971;SDS011;40530;53.062;6.078;2023-10-13T08:08:41;21.95;;;8.02;;
53971;SDS011;40530;53.062;6.078;2023-10-13T08:11:12;23.20;;;6.60;;
53971;SDS011;40530;53.062;6.078;2023-10-13T08:13:47;28.60;;;7.60;;
53971;SDS011;40530;53.062;6.078;2023-10-13T08:16:19;24.35;;;7.32;;
53971;SDS011;40530;53.062;6.078;2023-10-13T08:18:50;17.45;;;6.03;;
53971;SDS011;40530;53.062;6.078;2023-10-13T08:21:17;18.23;;;6.60;;
53971;SDS011;40530;53.062;6.078;2023-10-13T08:23:48;22.20;;;6.80;;
53971;SDS011;40530;53.062;6.078;2023-10-13T08:26:26;23.75;;;7.25;;
53971;SDS011;40530;53.062;6.078;2023-10-13T08:29:06;17.58;;;6.30;;
53971;SDS011;40530;53.062;6.078;2023-10-13T08:31:54;15.88;;;5.82;;
53971;SDS011;40530;53.062;6.078;2023-10-13T08:34:38;19.15;;;6.97;;
53971;SDS011;40530;53.062;6.078;2023-10-13T08:37:07;16.83;;;6.45;;
53971;SDS011;40530;53.062;6.078;2023-10-13T08:39:53;16.52;;;6.30;;
53971;SDS011;40530;53.062;6.078;2023-10-13T08:42:30;21.60;;;6.18;;
53971;SDS011;40530;53.062;6.078;2023-10-13T08:45:12;18.38;;;7.25;;
53971;SDS011;40530;53.062;6.078;2023-10-13T08:47:49;15.75;;;6.22;;
53971;SDS011;40530;53.062;6.078;2023-10-13T08:53:15;20.70;;;7.07;;
53971;SDS011;40530;53.062;6.078;2023-10-13T08:56:07;16.30;;;6.97;;
53971;SDS011;40530;53.062;6.078;2023-10-13T08:58:48;18.50;;;7.57;;
53971;SDS011;40530;53.062;6.078;2023-10-13T09:01:17;18.13;;;7.10;;
53971;SDS011;40530;53.062;6.078;2023-10-13T09:04:16;18.52;;;7.25;;
53971;SDS011;40530;53.062;6.078;2023-10-13T09:06:43;21.40;;;8.77;;
53971;SDS011;40530;53.062;6.078;2023-10-13T09:09:13;21.67;;;7.90;;
53971;SDS011;40530;53.062;6.078;2023-10-13T09:11:57;17.90;;;7.65;;
53971;SDS011;40530;53.062;6.078;2023-10-13T09:14:52;20.05;;;7.93;;
53971;SDS011;40530;53.062;6.078;2023-10-13T09:17:48;15.80;;;8.05;;
53971;SDS011;40530;53.062;6.078;2023-10-13T09:20:38;21.02;;;8.30;;
53971;SDS011;40530;53.062;6.078;2023-10-13T09:23:08;15.65;;;7.90;;
53971;SDS011;40530;53.062;6.078;2023-10-13T09:25:38;19.02;;;7.22;;
53971;SDS011;40530;53.062;6.078;2023-10-13T09:28:18;18.23;;;7.38;;
53971;SDS011;40530;53.062;6.078;2023-10-13T09:30:47;18.52;;;7.15;;
53971;SDS011;40530;53.062;6.078;2023-10-13T09:33:13;23.38;;;6.68;;
53971;SDS011;40530;53.062;6.078;2023-10-13T09:35:53;17.17;;;7.72;;
53971;SDS011;40530;53.062;6.078;2023-10-13T09:38:19;15.45;;;6.55;;
53971;SDS011;40530;53.062;6.078;2023-10-13T09:40:46;14.60;;;7.32;;
53971;SDS011;40530;53.062;6.078;2023-10-13T09:43:18;20.52;;;6.45;;
53971;SDS011;40530;53.062;6.078;2023-10-13T09:45:47;14.57;;;5.20;;
53971;SDS011;40530;53.062;6.078;2023-10-13T09:48:33;16.35;;;6.00;;
53971;SDS011;40530;53.062;6.078;2023-10-13T09:51:01;16.05;;;5.72;;
53971;SDS011;40530;53.062;6.078;2023-10-13T09:53:33;16.05;;;5.47;;
53971;SDS011;40530;53.062;6.078;2023-10-13T09:58:37;18.20;;;5.55;;
53971;SDS011;40530;53.062;6.078;2023-10-13T10:01:12;17.33;;;4.85;;
53971;SDS011;40530;53.062;6.078;2023-10-13T10:03:49;19.70;;;6.05;;
53971;SDS011;40530;53.062;6.078;2023-10-13T10:06:32;12.05;;;5.00;;
53971;SDS011;40530;53.062;6.078;2023-10-13T10:09:08;19.17;;;5.85;;
53971;SDS011;40530;53.062;6.078;2023-10-13T10:14:27;18.40;;;5.95;;
53971;SDS011;40530;53.062;6.078;2023-10-13T10:17:05;21.58;;;5.63;;
53971;SDS011;40530;53.062;6.078;2023-10-13T10:19:50;21.10;;;5.03;;
53971;SDS011;40530;53.062;6.078;2023-10-13T10:22:26;13.50;;;3.95;;
53971;SDS011;40530;53.062;6.078;2023-10-13T10:24:57;17.60;;;4.65;;
53971;SDS011;40530;53.062;6.078;2023-10-13T10:27:24;14.35;;;4.95;;
53971;SDS011;40530;53.062;6.078;2023-10-13T10:29:54;16.83;;;6.00;;
53971;SDS011;40530;53.062;6.078;2023-10-13T10:32:20;24.27;;;8.05;;
53971;SDS011;40530;53.062;6.078;2023-10-13T10:34:47;17.45;;;5.47;;
53971;SDS011;40530;53.062;6.078;2023-10-13T10:37:13;13.30;;;4.60;;
53971;SDS011;40530;53.062;6.078;2023-10-13T10:39:41;17.38;;;5.00;;
53971;SDS011;40530;53.062;6.078;2023-10-13T10:42:13;21.30;;;6.32;;
53971;SDS011;40530;53.062;6.078;2023-10-13T10:44:51;18.75;;;5.78;;
53971;SDS011;40530;53.062;6.078;2023-10-13T10:47:20;16.85;;;6.05;;
53971;SDS011;40530;53.062;6.078;2023-10-13T10:49:57;18.23;;;5.05;;
53971;SDS011;40530;53.062;6.078;2023-10-13T10:52:25;14.80;;;5.50;;
53971;SDS011;40530;53.062;6.078;2023-10-13T10:54:59;19.17;;;5.60;;
53971;SDS011;40530;53.062;6.078;2023-10-13T10:57:27;13.75;;;4.97;;
53971;SDS011;40530;53.062;6.078;2023-10-13T11:00:02;21.58;;;5.55;;
53971;SDS011;40530;53.062;6.078;2023-10-13T11:02:37;22.52;;;6.07;;
53971;SDS011;40530;53.062;6.078;2023-10-13T11:05:03;18.88;;;5.72;;
53971;SDS011;40530;53.062;6.078;2023-10-13T11:07:31;15.93;;;5.68;;
53971;SDS011;40530;53.062;6.078;2023-10-13T11:10:09;15.73;;;4.82;;
53971;SDS011;40530;53.062;6.078;2023-10-13T11:12:53;12.80;;;5.65;;
53971;SDS011;40530;53.062;6.078;2023-10-13T11:15:19;16.55;;;4.97;;
53971;SDS011;40530;53.062;6.078;2023-10-13T11:17:49;18.13;;;6.07;;
53971;SDS011;40530;53.062;6.078;2023-10-13T11:20:19;12.95;;;5.07;;
53971;SDS011;40530;53.062;6.078;2023-10-13T11:23:12;17.25;;;5.38;;
53971;SDS011;40530;53.062;6.078;2023-10-13T11:25:38;16.45;;;5.55;;
53971;SDS011;40530;53.062;6.078;2023-10-13T11:28:10;23.13;;;6.95;;
53971;SDS011;40530;53.062;6.078;2023-10-13T11:30:44;24.45;;;6.70;;
53971;SDS011;40530;53.062;6.078;2023-10-13T11:33:14;27.67;;;7.22;;
53971;SDS011;40530;53.062;6.078;2023-10-13T11:35:44;22.77;;;6.03;;
53971;SDS011;40530;53.062;6.078;2023-10-13T11:38:19;23.77;;;6.18;;
53971;SDS011;40530;53.062;6.078;2023-10-13T11:43:29;18.10;;;6.47;;
53971;SDS011;40530;53.062;6.078;2023-10-13T11:46:00;20.40;;;6.45;;
53971;SDS011;40530;53.062;6.078;2023-10-13T11:48:44;23.17;;;6.38;;
53971;SDS011;40530;53.062;6.078;2023-10-13T11:51:19;21.20;;;5.93;;
53971;SDS011;40530;53.062;6.078;2023-10-13T11:53:57;28.13;;;6.47;;
53971;SDS011;40530;53.062;6.078;2023-10-13T11:56:23;28.92;;;6.00;;
53971;SDS011;40530;53.062;6.078;2023-10-13T11:58:50;22.50;;;6.65;;
53971;SDS011;40530;53.062;6.078;2023-10-13T12:01:16;18.88;;;5.57;;
53971;SDS011;40530;53.062;6.078;2023-10-13T12:03:47;15.43;;;5.10;;
53971;SDS011;40530;53.062;6.078;2023-10-13T12:06:33;15.15;;;6.13;;
53971;SDS011;40530;53.062;6.078;2023-10-13T12:11:57;21.75;;;5.90;;
53971;SDS011;40530;53.062;6.078;2023-10-13T12:14:25;14.98;;;5.40;;
53971;SDS011;40530;53.062;6.078;2023-10-13T12:17:02;21.13;;;5.45;;
53971;SDS011;40530;53.062;6.078;2023-10-13T12:19:29;16.35;;;5.72;;
53971;SDS011;40530;53.062;6.078;2023-10-13T12:21:57;25.40;;;6.20;;
53971;SDS011;40530;53.062;6.078;2023-10-13T12:24:29;16.70;;;6.15;;
53971;SDS011;40530;53.062;6.078;2023-10-13T12:27:04;14.13;;;5.75;;
53971;SDS011;40530;53.062;6.078;2023-10-13T12:29:52;19.00;;;6.22;;
53971;SDS011;40530;53.062;6.078;2023-10-13T12:32:21;24.40;;;6.78;;
53971;SDS011;40530;53.062;6.078;2023-10-13T12:34:50;19.88;;;5.38;;
53971;SDS011;40530;53.062;6.078;2023-10-13T12:37:22;23.75;;;6.32;;
53971;SDS011;40530;53.062;6.078;2023-10-13T12:40:18;31.10;;;6.30;;
53971;SDS011;40530;53.062;6.078;2023-10-13T12:43:03;19.67;;;6.53;;
53971;SDS011;40530;53.062;6.078;2023-10-13T12:45:50;18.38;;;6.07;;
53971;SDS011;40530;53.062;6.078;2023-10-13T12:48:35;16.67;;;6.10;;
53971;SDS011;40530;53.062;6.078;2023-10-13T12:51:20;25.30;;;7.30;;
53971;SDS011;40530;53.062;6.078;2023-10-13T12:53:53;23.48;;;6.60;;
53971;SDS011;40530;53.062;6.078;2023-10-13T12:56:19;25.67;;;6.68;;
53971;SDS011;40530;53.062;6.078;2023-10-13T12:58:51;22.52;;;6.32;;
53971;SDS011;40530;53.062;6.078;2023-10-13T13:01:17;25.65;;;6.18;;
53971;SDS011;40530;53.062;6.078;2023-10-13T13:03:47;20.02;;;6.53;;
53971;SDS011;40530;53.062;6.078;2023-10-13T13:06:17;17.08;;;7.28;;
53971;SDS011;40530;53.062;6.078;2023-10-13T13:08:49;21.70;;;7.55;;
53971;SDS011;40530;53.062;6.078;2023-10-13T13:11:15;22.58;;;6.53;;
53971;SDS011;40530;53.062;6.078;2023-10-13T13:13:41;13.43;;;6.13;;
53971;SDS011;40530;53.062;6.078;2023-10-13T13:16:08;18.48;;;6.43;;
53971;SDS011;40530;53.062;6.078;2023-10-13T13:18:34;21.63;;;7.18;;
53971;SDS011;40530;53.062;6.078;2023-10-13T13:21:00;23.60;;;7.88;;
53971;SDS011;40530;53.062;6.078;2023-10-13T13:23:31;20.40;;;7.57;;
53971;SDS011;40530;53.062;6.078;2023-10-13T13:25:57;25.40;;;7.40;;
53971;SDS011;40530;53.062;6.078;2023-10-13T13:28:23;24.05;;;6.93;;
53971;SDS011;40530;53.062;6.078;2023-10-13T13:30:49;29.42;;;8.25;;
53971;SDS011;40530;53.062;6.078;2023-10-13T13:33:18;16.98;;;6.68;;
53971;SDS011;40530;53.062;6.078;2023-10-13T13:35:48;20.73;;;6.72;;
53971;SDS011;40530;53.062;6.078;2023-10-13T13:38:14;21.25;;;6.97;;
53971;SDS011;40530;53.062;6.078;2023-10-13T13:40:56;16.60;;;7.10;;
53971;SDS011;40530;53.062;6.078;2023-10-13T13:43:23;21.17;;;7.63;;
53971;SDS011;40530;53.062;6.078;2023-10-13T13:46:06;28.67;;;8.00;;
53971;SDS011;40530;53.062;6.078;2023-10-13T13:48:36;18.73;;;6.50;;
53971;SDS011;40530;53.062;6.078;2023-10-13T13:51:03;19.30;;;7.60;;
53971;SDS011;40530;53.062;6.078;2023-10-13T13:53:31;20.02;;;7.38;;
53971;SDS011;40530;53.062;6.078;2023-10-13T13:56:03;19.35;;;6.93;;
53971;SDS011;40530;53.062;6.078;2023-10-13T13:58:29;24.30;;;7.90;;
53971;SDS011;40530;53.062;6.078;2023-10-13T14:01:02;19.45;;;6.22;;
53971;SDS011;40530;53.062;6.078;2023-10-13T14:03:44;22.08;;;7.20;;
53971;SDS011;40530;53.062;6.078;2023-10-13T14:08:50;15.73;;;6.72;;
53971;SDS011;40530;53.062;6.078;2023-10-13T14:11:16;16.83;;;6.25;;
53971;SDS011;40530;53.062;6.078;2023-10-13T14:14:10;23.92;;;6.60;;
53971;SDS011;40530;53.062;6.078;2023-10-13T14:16:53;19.70;;;6.75;;
53971;SDS011;40530;53.062;6.078;2023-10-13T14:19:27;21.63;;;6.78;;
53971;SDS011;40530;53.062;6.078;2023-10-13T14:21:54;18.45;;;6.07;;
53971;SDS011;40530;53.062;6.078;2023-10-13T14:24:20;20.40;;;5.80;;
53971;SDS011;40530;53.062;6.078;2023-10-13T14:26:58;16.38;;;5.45;;
53971;SDS011;40530;53.062;6.078;2023-10-13T14:29:32;17.75;;;5.72;;
53971;SDS011;40530;53.062;6.078;2023-10-13T14:31:58;19.90;;;5.78;;
53971;SDS011;40530;53.062;6.078;2023-10-13T14:34:25;16.55;;;6.13;;
53971;SDS011;40530;53.062;6.078;2023-10-13T14:36:51;24.10;;;6.32;;
53971;SDS011;40530;53.062;6.078;2023-10-13T14:39:19;15.68;;;5.63;;
53971;SDS011;40530;53.062;6.078;2023-10-13T14:41:46;27.17;;;7.32;;
53971;SDS011;40530;53.062;6.078;2023-10-13T14:44:13;26.02;;;6.93;;
53971;SDS011;40530;53.062;6.078;2023-10-13T14:46:39;22.17;;;6.43;;
53971;SDS011;40530;53.062;6.078;2023-10-13T14:49:06;23.17;;;6.45;;
53971;SDS011;40530;53.062;6.078;2023-10-13T14:51:32;22.42;;;6.20;;
53971;SDS011;40530;53.062;6.078;2023-10-13T14:53:58;15.93;;;6.60;;
53971;SDS011;40530;53.062;6.078;2023-10-13T14:56:25;22.20;;;5.78;;
53971;SDS011;40530;53.062;6.078;2023-10-13T14:58:52;16.50;;;6.05;;
53971;SDS011;40530;53.062;6.078;2023-10-13T15:01:19;18.85;;;5.38;;
53971;SDS011;40530;53.062;6.078;2023-10-13T15:03:46;20.77;;;5.38;;
53971;SDS011;40530;53.062;6.078;2023-10-13T15:06:16;20.48;;;5.45;;
53971;SDS011;40530;53.062;6.078;2023-10-13T15:08:55;18.45;;;6.28;;
53971;SDS011;40530;53.062;6.078;2023-10-13T15:11:21;23.42;;;6.80;;
53971;SDS011;40530;53.062;6.078;2023-10-13T15:13:52;23.00;;;7.53;;
53971;SDS011;40530;53.062;6.078;2023-10-13T15:16:21;20.90;;;5.88;;
53971;SDS011;40530;53.062;6.078;2023-10-13T15:18:48;16.83;;;5.85;;
53971;SDS011;40530;53.062;6.078;2023-10-13T15:21:24;18.35;;;6.25;;
53971;SDS011;40530;53.062;6.078;2023-10-13T15:23:57;24.90;;;6.07;;
53971;SDS011;40530;53.062;6.078;2023-10-13T15:26:28;19.52;;;6.47;;
53971;SDS011;40530;53.062;6.078;2023-10-13T15:28:54;25.52;;;6.18;;
53971;SDS011;40530;53.062;6.078;2023-10-13T15:31:21;23.58;;;6.18;;
53971;SDS011;40530;53.062;6.078;2023-10-13T15:33:59;21.90;;;5.18;;
53971;SDS011;40530;53.062;6.078;2023-10-13T15:36:32;20.70;;;6.57;;
53971;SDS011;40530;53.062;6.078;2023-10-13T15:38:58;21.00;;;6.03;;